Time;durP1;ratioP1;P1;durP2;ratioP2;P2;SDS_P1;SDS_P2;PMS_P1;PMS_P2;Temp;Humidity;BMP_temperature;BMP_pressure;BME280_temperature;BME280_humidity;BME280_pressure;Samples;Min_cycle;Max_cycle;Signal;HPM_P1;HPM_P2
2024/02/12 00:03:26;;;;;;;2.20;1.98;;;8.20;99.90;;;8.93;85.31;96304.69;10402010;28;20719;-67
2024/02/12 00:08:30;;;;;;;1.85;1.70;;;8.20;99.90;;;8.81;85.93;96305.06;10414405;28;20229;-67
2024/02/12 00:13:35;;;;;;;1.98;1.88;;;8.10;99.90;;;8.80;86.41;96310.97;10402747;28;20238;-67
2024/02/12 00:18:38;;;;;;;2.03;1.92;;;8.10;99.90;;;8.70;86.54;96304.66;10400486;28;20236;-67
2024/02/12 00:23:43;;;;;;;1.90;1.80;;;8.00;99.90;;;9.00;85.56;96306.66;10401610;28;20221;-64
2024/02/12 00:28:48;;;;;;;1.70;1.60;;;8.20;99.90;;;8.83;86.77;96306.00;10394832;28;20615;-65
2024/02/12 00:33:51;;;;;;;1.95;1.85;;;8.10;99.90;;;9.05;85.33;96297.50;10404034;28;20229;-67
2024/02/12 00:38:55;;;;;;;1.92;1.83;;;8.40;99.90;;;8.81;86.92;96305.06;10400401;28;20235;-65
2024/02/12 00:43:59;;;;;;;1.60;1.50;;;8.20;99.90;;;8.87;87.69;96305.31;10407707;28;20251;-67
2024/02/12 00:49:02;;;;;;;1.80;1.70;;;8.20;99.90;;;8.85;87.49;96311.16;10406652;28;20287;-66
2024/02/12 00:54:06;;;;;;;2.05;1.95;;;8.20;99.90;;;8.82;89.31;96305.97;10400815;28;20257;-67
2024/02/12 00:59:11;;;;;;;1.88;1.77;;;8.20;99.90;;;8.72;90.54;96309.81;10398246;28;20230;-67
2024/02/12 01:04:15;;;;;;;1.75;1.65;;;8.00;99.90;;;8.62;92.41;96325.56;10395591;28;20233;-66
2024/02/12 01:09:18;;;;;;;1.77;1.67;;;8.00;99.90;;;8.82;90.07;96328.88;10401379;28;20718;-66
2024/02/12 01:14:23;;;;;;;1.75;1.38;;;8.00;99.90;;;8.77;90.40;96324.47;10394814;28;20244;-66
2024/02/12 01:19:26;;;;;;;1.70;1.60;;;8.10;99.90;;;8.63;92.84;96330.69;10399066;28;20234;-66
2024/02/12 01:24:30;;;;;;;1.75;1.65;;;8.00;99.90;;;8.59;93.18;96336.47;10394300;28;20323;-66
2024/02/12 01:29:37;;;;;;;1.92;1.75;;;7.90;99.90;;;8.59;92.80;96331.41;10408451;28;20237;-65
2024/02/12 01:34:44;;;;;;;1.70;1.60;;;7.90;99.90;;;8.73;92.03;96330.25;10400531;28;20237;-65
2024/02/12 01:39:49;;;;;;;1.20;1.20;;;8.00;99.90;;;8.67;92.24;96327.47;10401940;28;20547;-66
2024/02/12 01:45:11;;;;;;;1.92;1.80;;;8.00;99.90;;;8.94;89.20;96329.34;10400741;28;20226;-65
2024/02/12 01:50:17;;;;;;;2.17;2.08;;;8.10;99.90;;;8.72;90.29;96330.19;10393733;28;20705;-65
2024/02/12 01:55:22;;;;;;;1.90;1.80;;;8.10;99.90;;;8.52;91.66;96332.81;10396026;28;20238;-66
2024/02/12 02:00:26;;;;;;;2.13;1.73;;;7.90;99.90;;;8.53;92.10;96333.69;10394372;28;20237;-65
2024/02/12 02:05:32;;;;;;;2.15;2.00;;;7.90;99.90;;;8.75;91.05;96325.22;10398943;28;20244;-65
2024/02/12 02:10:36;;;;;;;1.20;1.20;;;8.00;99.90;;;8.76;90.30;96316.78;10404436;28;20239;-66
2024/02/12 02:15:42;;;;;;;1.70;1.60;;;7.90;99.90;;;8.89;88.29;96329.16;10403125;28;20229;-65
2024/02/12 02:20:45;;;;;;;1.50;1.40;;;8.30;99.90;;;8.87;87.66;96324.81;10404515;28;20229;-65
2024/02/12 02:25:50;;;;;;;1.60;1.50;;;8.20;99.90;;;8.69;88.61;96337.72;10399321;28;20791;-66
2024/02/12 02:30:53;;;;;;;1.73;1.63;;;8.10;99.90;;;8.69;88.84;96335.16;10397673;28;20731;-66
2024/02/12 02:35:57;;;;;;;1.30;1.30;;;8.10;99.90;;;8.79;87.74;96322.00;10394753;28;20721;-66
2024/02/12 02:41:03;;;;;;;1.70;1.60;;;8.20;99.90;;;8.86;86.94;96329.03;10396434;28;20214;-65
2024/02/12 02:46:06;;;;;;;1.60;1.50;;;8.40;99.90;;;8.76;87.08;96337.16;10404365;28;20228;-66
2024/02/12 02:51:09;;;;;;;1.57;1.47;;;8.40;99.90;;;8.78;87.24;96335.50;10392310;28;20236;-65
2024/02/12 02:56:14;;;;;;;1.87;1.63;;;8.30;99.90;;;8.82;87.29;96337.38;10390543;28;20229;-66
2024/02/12 03:01:19;;;;;;;1.58;1.52;;;8.20;99.90;;;8.84;87.67;96347.63;10394865;28;20615;-65
2024/02/12 03:06:23;;;;;;;1.60;1.43;;;8.30;99.90;;;8.72;87.84;96350.56;10388627;28;20757;-65
2024/02/12 03:11:29;;;;;;;1.40;1.40;;;8.20;99.90;;;8.68;88.51;96364.00;10390326;28;20270;-65
2024/02/12 03:16:32;;;;;;;1.30;1.30;;;8.10;99.90;;;8.70;88.95;96357.25;10401125;28;20229;-66
2024/02/12 03:21:36;;;;;;;1.63;1.53;;;8.00;99.90;;;8.60;88.92;96345.84;10397572;28;20230;-66
2024/02/12 03:26:40;;;;;;;1.70;1.60;;;8.00;99.90;;;8.73;89.11;96358.28;10397596;28;20241;-66
2024/02/12 03:31:43;;;;;;;1.87;1.77;;;8.10;99.90;;;8.56;90.89;96360.16;10405935;28;20244;-66
2024/02/12 03:36:46;;;;;;;1.90;1.80;;;8.00;99.90;;;8.57;91.03;96366.97;10396850;28;20226;-66
2024/02/12 03:41:51;;;;;;;1.95;1.80;;;7.90;99.90;;;8.72;90.12;96371.81;10398518;28;20236;-66
2024/02/12 03:46:55;;;;;;;1.92;1.83;;;8.00;99.90;;;8.71;89.02;96374.31;10399592;28;20221;-66
2024/02/12 04:02:46;;;;;;;1.90;1.80;;;7.90;99.90;;;8.23;95.34;96407.94;10324622;28;20233;-66
2024/02/12 04:07:50;;;;;;;1.75;1.65;;;7.70;99.90;;;8.22;98.01;96415.53;10409786;28;20308;-66
2024/02/12 04:12:56;;;;;;;1.55;1.48;;;7.60;99.90;;;8.30;98.29;96419.28;10396414;28;20221;-66
2024/02/12 04:17:59;;;;;;;1.83;1.77;;;7.50;99.90;;;8.09;99.51;96412.44;10403638;28;20230;-66
2024/02/12 04:23:03;;;;;;;1.90;1.80;;;7.40;99.90;;;8.12;99.02;96427.84;10395175;28;21268;-66
2024/02/12 04:28:09;;;;;;;1.40;1.40;;;7.40;99.90;;;8.09;99.27;96427.72;10405295;28;20271;-66
2024/02/12 04:33:12;;;;;;;1.93;1.83;;;7.40;99.90;;;8.01;99.16;96431.63;10400522;28;20284;-66
2024/02/12 04:38:16;;;;;;;1.63;1.50;;;7.40;99.90;;;7.98;98.99;96448.41;10405817;28;20606;-66
2024/02/12 04:43:20;;;;;;;1.50;1.50;;;7.40;99.90;;;8.17;97.02;96457.72;10400962;28;20232;-66
2024/02/12 04:48:24;;;;;;;1.80;1.70;;;7.50;99.90;;;8.08;97.36;96461.59;10402751;28;20229;-66
2024/02/12 04:53:27;;;;;;;1.77;1.67;;;7.50;99.90;;;7.96;98.04;96456.00;10402828;28;20237;-66
2024/02/12 04:58:32;;;;;;;1.50;1.50;;;7.40;99.90;;;8.08;96.85;96461.59;10403585;28;20261;-66
2024/02/12 05:03:36;;;;;;;1.70;1.60;;;7.40;99.90;;;8.06;97.16;96467.44;10393608;28;20236;-66
2024/02/12 05:08:40;;;;;;;1.83;1.73;;;7.40;99.90;;;8.08;96.40;96466.69;10400768;28;20241;-65
2024/02/12 05:13:44;;;;;;;2.00;1.87;;;7.40;99.90;;;8.08;97.12;96465.84;10415424;28;20239;-66
2024/02/12 05:24:10;;;;;;;1.77;1.67;;;7.40;99.90;;;8.07;96.09;96485.31;10395094;28;20272;-67
2024/02/12 05:29:14;;;;;;;2.10;2.00;;;7.40;99.90;;;7.91;97.26;96482.88;10401145;28;20236;-66
2024/02/12 05:34:20;;;;;;;2.03;1.70;;;7.40;99.90;;;7.95;97.04;96482.22;10412409;28;20772;-66
2024/02/12 05:39:23;;;;;;;2.10;1.90;;;7.40;99.90;;;7.90;97.72;96489.66;10405779;28;20222;-66
2024/02/12 05:44:29;;;;;;;2.00;1.90;;;7.30;99.90;;;7.95;97.60;96499.16;10401136;28;20244;-66
2024/02/12 05:49:34;;;;;;;1.93;1.90;;;7.30;99.90;;;7.92;97.93;96506.66;10396144;28;20234;-65
2024/02/12 05:54:37;;;;;;;1.97;1.87;;;7.20;99.90;;;7.96;98.25;96506.00;10407620;28;20839;-66
2024/02/12 05:59:42;;;;;;;2.47;1.67;;;7.30;99.90;;;8.11;97.44;96516.84;10403032;28;20225;-66
2024/02/12 06:04:45;;;;;;;2.22;2.13;;;7.30;99.90;;;8.00;97.31;96518.91;10402835;28;20229;-66
2024/02/12 06:09:48;;;;;;;1.90;1.80;;;7.30;99.90;;;8.17;96.53;96529.84;10406326;28;20221;-66
2024/02/12 06:14:54;;;;;;;1.80;1.70;;;7.40;99.90;;;7.98;97.77;96530.69;10405708;28;20229;-66
2024/02/12 06:19:57;;;;;;;2.60;2.07;;;7.30;99.90;;;7.92;98.63;96540.59;10395626;28;20328;-66
2024/02/12 06:25:04;;;;;;;2.05;1.92;;;7.30;99.90;;;7.92;98.29;96545.69;10402845;28;20233;-66
2024/02/12 06:30:11;;;;;;;2.15;2.00;;;7.30;99.90;;;8.03;97.59;96553.81;10399989;28;20233;-67
2024/02/12 06:35:16;;;;;;;2.30;2.10;;;7.30;99.90;;;7.97;98.36;96561.16;10394488;28;20233;-67
2024/02/12 06:40:20;;;;;;;2.10;2.00;;;7.30;99.90;;;8.04;97.46;96568.25;10387729;28;20249;-68
2024/02/12 06:45:25;;;;;;;5.53;4.55;;;7.30;99.90;;;8.09;96.78;96576.97;10396943;28;20528;-67
2024/02/12 06:50:28;;;;;;;3.30;3.03;;;7.30;99.90;;;8.16;96.24;96590.88;10390026;28;20748;-67
2024/02/12 06:55:32;;;;;;;4.27;3.60;;;7.30;99.90;;;8.06;97.57;96590.44;10391342;28;20233;-67
2024/02/12 07:00:37;;;;;;;3.63;3.40;;;7.30;99.90;;;8.11;96.92;96609.34;10400611;28;20222;-67
2024/02/12 07:05:41;;;;;;;3.20;2.90;;;7.30;99.90;;;8.05;96.51;96606.50;10401066;28;20233;-67
2024/02/12 07:10:44;;;;;;;3.00;2.70;;;7.30;99.90;;;7.85;98.44;96610.66;10402495;28;20237;-67
2024/02/12 07:15:49;;;;;;;2.90;2.70;;;7.30;99.90;;;8.08;97.25;96621.91;10400623;28;20226;-67
2024/02/12 07:20:52;;;;;;;2.43;2.23;;;7.30;99.90;;;8.07;97.62;96622.72;10405098;28;20225;-67
2024/02/12 07:25:58;;;;;;;3.38;3.08;;;7.30;99.90;;;7.98;98.15;96634.13;10397288;28;20364;-67
2024/02/12 07:31:03;;;;;;;3.30;3.03;;;7.30;99.90;;;7.92;99.44;96632.16;10404862;28;20727;-67
2024/02/12 07:36:08;;;;;;;3.67;3.13;;;7.30;99.90;;;7.84;100.00;96641.09;10401177;28;20250;-67
2024/02/12 07:41:13;;;;;;;3.03;2.83;;;7.20;99.90;;;7.76;100.00;96645.84;10403767;28;20226;-67
2024/02/12 07:46:18;;;;;;;3.33;3.00;;;7.20;99.90;;;7.81;100.00;96658.78;10406424;28;20322;-67
2024/02/12 07:51:21;;;;;;;3.53;3.23;;;7.20;99.90;;;7.70;100.00;96665.91;10395448;28;20244;-67
2024/02/12 07:56:27;;;;;;;3.33;3.00;;;7.10;99.90;;;7.74;100.00;96670.31;10395109;28;20273;-67
2024/02/12 08:01:32;;;;;;;3.53;3.22;;;7.10;99.90;;;7.81;100.00;96684.22;10402497;28;20989;-67
2024/02/12 08:06:36;;;;;;;3.53;3.23;;;7.10;99.90;;;7.81;100.00;96674.03;10404368;28;20628;-67
2024/02/12 08:11:40;;;;;;;3.67;3.37;;;7.10;99.90;;;7.88;100.00;96681.16;10405104;28;20238;-67
2024/02/12 08:16:46;;;;;;;4.03;2.80;;;7.20;99.90;;;7.91;99.19;96686.41;10407851;28;20221;-67
2024/02/12 08:21:49;;;;;;;3.20;2.83;;;7.30;99.90;;;8.06;98.15;96701.53;10409195;28;20274;-67
2024/02/12 08:26:53;;;;;;;2.90;2.80;;;7.40;99.90;;;8.12;97.86;96702.69;10400491;28;20236;-67
2024/02/12 08:31:57;;;;;;;2.88;2.67;;;7.40;99.90;;;8.26;96.10;96715.19;10397005;28;20308;-67
2024/02/12 08:37:01;;;;;;;3.78;2.70;;;7.50;99.90;;;8.40;94.19;96721.84;10395757;28;20225;-67
2024/02/12 08:42:05;;;;;;;3.17;2.97;;;7.70;99.90;;;8.44;94.22;96728.84;10398085;28;20229;-67
2024/02/12 08:47:09;;;;;;;3.27;2.90;;;7.70;99.90;;;8.46;94.57;96732.31;10398658;28;20226;-66
2024/02/12 08:52:12;;;;;;;3.08;2.88;;;7.70;99.90;;;8.52;93.96;96732.59;10396053;28;20364;-67
2024/02/12 08:57:15;;;;;;;2.60;2.47;;;7.80;99.90;;;8.62;94.11;96736.47;10397170;28;20237;-67
2024/02/12 09:02:21;;;;;;;2.50;2.30;;;7.90;99.90;;;8.69;93.07;96745.25;10396252;28;20234;-67
2024/02/12 09:07:26;;;;;;;2.28;2.08;;;8.00;99.90;;;8.72;92.81;96745.38;10394543;28;20229;-67
2024/02/12 09:12:29;;;;;;;2.72;2.47;;;8.00;99.90;;;8.85;91.73;96754.47;10391279;28;20226;-67
2024/02/12 09:17:48;;;;;;;3.60;3.30;;;8.00;99.90;;;8.99;92.29;96758.53;10390337;28;20728;-67
2024/02/12 09:22:53;;;;;;;3.17;2.88;;;8.20;99.90;;;9.16;91.34;96772.91;10400951;28;20636;-67
2024/02/12 09:27:56;;;;;;;2.60;2.40;;;8.30;99.90;;;9.31;89.63;96766.72;10400951;28;20776;-67
2024/02/12 09:33:01;;;;;;;3.00;2.80;;;8.40;99.90;;;9.33;87.58;96772.75;10401980;28;20240;-67
2024/02/12 09:38:06;;;;;;;2.78;2.58;;;8.50;99.90;;;9.39;87.22;96776.47;10395288;28;20229;-68
2024/02/12 09:43:10;;;;;;;2.60;2.40;;;8.50;99.90;;;9.27;88.20;96783.56;10394764;28;20237;-67
2024/02/12 09:48:15;;;;;;;2.70;2.35;;;8.40;99.90;;;9.42;86.04;96791.91;10394161;28;20621;-67
2024/02/12 09:53:20;;;;;;;2.42;2.33;;;8.50;99.90;;;9.23;86.71;96789.31;10389482;28;20242;-67
2024/02/12 09:58:23;;;;;;;2.28;2.17;;;8.40;99.90;;;9.37;85.54;96795.03;10386771;28;20344;-67
2024/02/12 10:03:28;;;;;;;2.28;2.08;;;8.50;99.90;;;9.42;86.19;96794.44;10392366;28;20576;-67
2024/02/12 10:08:31;;;;;;;2.50;2.30;;;8.60;99.90;;;9.61;87.73;96797.78;10387541;28;20236;-67
2024/02/12 10:13:34;;;;;;;2.65;2.50;;;8.80;99.90;;;9.98;84.27;96796.81;10396720;28;20701;-67
2024/02/12 10:18:39;;;;;;;2.38;2.00;;;9.10;99.90;;;10.33;82.58;96794.06;10404985;28;20231;-67
2024/02/12 10:23:44;;;;;;;2.80;2.60;;;9.40;99.90;;;10.59;79.75;96797.66;10392832;28;20249;-67
2024/02/12 10:28:54;;;;;;;2.83;2.63;;;9.80;99.90;;;10.75;80.09;96806.78;10390874;28;20221;-67
2024/02/12 10:34:03;;;;;;;2.70;2.60;;;9.90;99.90;;;10.77;77.96;96801.75;10394858;28;20229;-67
2024/02/12 10:39:13;;;;;;;2.53;2.33;;;9.80;99.90;;;10.86;76.87;96801.25;10390256;28;20705;-67
2024/02/12 10:44:19;;;;;;;2.58;2.38;;;9.80;99.90;;;10.58;77.63;96805.25;10386257;28;20243;-67
2024/02/12 10:49:26;;;;;;;2.70;2.50;;;9.70;99.90;;;10.73;76.64;96810.09;10393327;28;20229;-67
2024/02/12 10:54:29;;;;;;;2.63;2.42;;;9.90;99.90;;;10.59;77.91;96812.13;10397065;28;20579;-67
2024/02/12 10:59:33;;;;;;;2.78;2.55;;;9.60;99.90;;;10.53;78.91;96804.19;10399211;28;20222;-67
2024/02/12 11:04:40;;;;;;;2.67;2.38;;;9.70;99.90;;;10.68;78.46;96814.19;10396630;28;20230;-67
2024/02/12 11:09:43;;;;;;;3.10;2.92;;;9.80;99.90;;;10.67;79.17;96815.84;10388545;28;20230;-66
2024/02/12 11:14:47;;;;;;;2.70;2.50;;;9.80;99.90;;;10.68;76.50;96821.84;10389688;28;20736;-67
2024/02/12 11:19:52;;;;;;;2.97;2.78;;;9.90;99.90;;;10.28;81.75;96821.09;10393609;28;20233;-67
2024/02/12 11:25:00;;;;;;;3.63;3.33;;;9.60;99.90;;;10.01;84.57;96819.91;10387652;28;20697;-67
2024/02/12 11:30:16;;;;;;;2.90;2.67;;;9.40;99.90;;;10.11;85.21;96820.38;10388413;28;20252;-65
2024/02/12 11:35:21;;;;;;;2.95;2.70;;;9.40;99.90;;;10.04;84.07;96827.69;10370534;28;20647;-66
2024/02/12 11:40:24;;;;;;;3.15;2.85;;;9.30;99.90;;;9.98;85.37;96820.66;10388118;28;20280;-66
2024/02/12 11:45:27;;;;;;;3.03;2.83;;;9.30;99.90;;;9.72;85.06;96813.56;10389363;28;21266;-66
2024/02/12 11:50:33;;;;;;;2.95;2.75;;;9.20;99.90;;;9.78;86.40;96814.69;10405666;28;20229;-66
2024/02/12 11:55:40;;;;;;;4.18;3.50;;;9.20;99.90;;;9.82;85.08;96829.34;10395521;28;20236;-66
2024/02/12 12:00:45;;;;;;;3.53;3.25;;;9.20;99.90;;;10.07;84.20;96820.16;10403141;28;20237;-67
2024/02/12 12:05:51;;;;;;;3.30;3.08;;;9.40;99.90;;;10.06;82.88;96823.53;10407101;28;20233;-66
2024/02/12 12:11:06;;;;;;;3.47;2.70;;;9.50;99.90;;;10.01;82.71;96815.66;10399453;28;20723;-66
2024/02/12 12:16:10;;;;;;;3.35;3.03;;;9.40;99.90;;;10.01;84.48;96819.91;10400077;28;20240;-67
2024/02/12 12:21:18;;;;;;;2.90;2.67;;;9.40;99.90;;;9.64;87.76;96833.63;10398800;28;20691;-66
2024/02/12 12:26:22;;;;;;;3.60;2.85;;;9.10;99.90;;;9.18;92.02;96829.03;10398095;28;20238;-66
2024/02/12 12:31:25;;;;;;;3.38;2.80;;;8.80;99.90;;;8.91;93.95;96834.59;10401229;28;20244;-67
2024/02/12 12:36:30;;;;;;;5.22;3.47;;;8.50;99.90;;;8.86;98.27;96828.41;10395355;28;20358;-66
2024/02/12 12:41:34;;;;;;;3.45;3.15;;;8.40;99.90;;;8.91;99.38;96834.59;10389542;28;20305;-67
2024/02/12 12:46:37;;;;;;;3.60;3.22;;;8.40;99.90;;;9.05;100.00;96827.59;10396987;28;21186;-66
2024/02/12 12:51:42;;;;;;;4.55;3.28;;;8.50;99.90;;;9.16;100.00;96838.31;10391275;28;20244;-67
2024/02/12 12:56:48;;;;;;;3.42;3.22;;;8.60;99.90;;;9.27;99.90;96834.56;10388057;28;20230;-66
2024/02/12 13:01:52;;;;;;;5.57;3.78;;;8.60;99.90;;;9.30;98.48;96838.91;10401299;28;20558;-67
2024/02/12 13:06:56;;;;;;;4.55;4.15;;;8.70;99.90;;;9.43;97.94;96836.97;10393935;28;20651;-67
2024/02/12 13:11:59;;;;;;;4.32;3.95;;;8.80;99.90;;;9.56;96.83;96840.09;10396495;28;20252;-66
2024/02/12 13:17:05;;;;;;;4.70;3.67;;;8.90;99.90;;;9.53;97.10;96845.03;10393268;28;20226;-66
2024/02/12 13:22:09;;;;;;;5.07;4.28;;;8.90;99.90;;;9.43;95.97;96842.09;10396564;28;20617;-67
2024/02/12 13:27:15;;;;;;;5.05;3.95;;;8.80;99.90;;;9.68;93.80;96843.19;10394597;28;20245;-67
2024/02/12 13:32:18;;;;;;;3.75;3.45;;;9.00;99.90;;;9.51;94.50;96859.44;10388313;28;20249;-66
2024/02/12 13:37:23;;;;;;;3.55;3.25;;;8.90;99.90;;;9.41;95.79;96864.13;10393512;28;20712;-66
2024/02/12 13:42:27;;;;;;;3.85;3.45;;;8.80;99.90;;;9.24;98.31;96859.91;10401021;28;20732;-66
2024/02/12 13:47:31;;;;;;;3.50;3.20;;;8.70;99.90;;;9.32;99.66;96873.88;10389970;28;20236;-66
2024/02/12 13:52:38;;;;;;;3.10;2.85;;;8.80;99.90;;;9.51;99.68;96874.72;10406068;28;20272;-66
2024/02/12 13:57:49;;;;;;;3.55;3.13;;;8.80;99.90;;;9.55;98.54;96874.91;10408759;28;20602;-66
2024/02/12 14:02:53;;;;;;;4.18;3.28;;;8.90;99.90;;;9.40;98.46;96882.75;10379015;28;20236;-66
2024/02/12 14:07:58;;;;;;;7.68;6.97;;;8.80;99.90;;;9.29;98.99;96886.47;10394968;28;20237;-67
2024/02/12 14:13:01;;;;;;;8.00;6.57;;;8.80;99.90;;;9.32;99.79;96894.28;10389144;28;20660;-67
2024/02/12 14:18:09;;;;;;;5.43;4.78;;;8.80;99.90;;;9.51;97.40;96897.69;10391930;28;20230;-67
2024/02/12 14:23:14;;;;;;;7.93;6.97;;;8.80;99.90;;;9.56;96.00;96911.53;10393663;28;20225;-67
2024/02/12 14:28:17;;;;;;;5.22;3.40;;;8.90;99.90;;;9.64;93.11;96920.38;10400909;28;20227;-66
2024/02/12 14:33:21;;;;;;;8.05;7.38;;;9.00;99.90;;;9.63;90.82;96918.63;10394768;28;20233;-66
2024/02/12 14:38:26;;;;;;;3.40;3.00;;;9.10;99.90;;;9.58;92.97;96925.19;10402596;28;20231;-66
2024/02/12 14:43:29;;;;;;;3.67;3.00;;;9.10;99.90;;;9.74;91.00;96932.75;10403983;28;20324;-67
2024/02/12 14:48:32;;;;;;;3.33;3.13;;;9.10;99.90;;;9.66;89.17;96936.63;10400635;28;20221;-67
2024/02/12 14:53:37;;;;;;;3.03;2.70;;;9.10;99.90;;;9.62;90.09;96942.41;10398345;28;20233;-67
2024/02/12 14:58:41;;;;;;;2.40;2.30;;;9.10;99.90;;;9.57;90.96;96948.97;10405105;28;20216;-66
2024/02/12 15:03:44;;;;;;;3.20;2.78;;;9.00;99.90;;;9.44;93.66;96958.63;10399937;28;20713;-67
2024/02/12 15:08:48;;;;;;;3.20;3.00;;;8.90;99.90;;;9.40;94.79;96963.50;10400786;28;20606;-67
2024/02/12 15:13:51;;;;;;;2.95;2.38;;;8.80;99.90;;;9.44;94.38;96968.81;10412306;28;20703;-67
2024/02/12 15:18:56;;;;;;;5.45;5.00;;;8.80;99.90;;;9.51;94.39;96975.06;10404734;28;20221;-67
2024/02/12 15:24:01;;;;;;;4.28;3.47;;;8.80;99.90;;;9.38;95.62;96983.81;10401236;28;20307;-67
2024/02/12 15:29:04;;;;;;;3.88;2.78;;;8.80;99.90;;;9.42;94.37;96990.81;10408686;28;20228;-67
2024/02/12 15:34:09;;;;;;;5.25;4.75;;;8.80;99.90;;;9.41;94.21;96998.38;10400903;28;20233;-68
2024/02/12 15:39:14;;;;;;;4.25;3.83;;;8.80;99.90;;;9.28;95.20;97013.91;10414956;28;20235;-66
2024/02/12 15:44:17;;;;;;;3.28;3.08;;;8.70;99.90;;;9.25;96.47;97017.19;10417337;28;20257;-67
2024/02/12 15:49:21;;;;;;;4.03;3.72;;;8.70;99.90;;;9.32;94.64;97021.78;10410557;28;20221;-68
2024/02/12 15:54:26;;;;;;;4.55;4.15;;;8.70;99.90;;;9.27;94.12;97030.91;10403204;28;20740;-66
2024/02/12 15:59:30;;;;;;;2.97;2.78;;;8.60;99.90;;;9.06;90.90;97038.34;10410879;28;20248;-67
2024/02/12 16:04:39;;;;;;;4.00;3.25;;;8.40;99.90;;;8.97;91.26;97056.63;10414487;28;20236;-66
2024/02/12 16:09:47;;;;;;;4.45;3.15;;;8.40;99.90;;;8.89;90.23;97059.59;10418828;28;20221;-67
2024/02/12 16:14:51;;;;;;;2.90;2.70;;;8.30;99.90;;;8.91;90.91;97076.69;10418504;28;20276;-66
2024/02/12 16:19:54;;;;;;;3.00;2.70;;;8.30;99.90;;;8.81;91.29;97074.47;10406204;28;20237;-66
2024/02/12 16:24:59;;;;;;;3.38;3.08;;;8.30;99.90;;;8.73;92.60;97091.06;10410452;28;22184;-66
2024/02/12 16:30:03;;;;;;;7.25;5.07;;;8.20;99.90;;;8.64;93.62;97105.84;10410101;28;20222;-67
2024/02/12 16:35:08;;;;;;;56.60;31.00;;;8.10;99.90;;;8.63;92.59;97104.09;10403231;28;20312;-66
2024/02/12 16:40:13;;;;;;;6.63;5.95;;;8.00;99.90;;;8.48;92.77;97114.38;10397994;28;20217;-67
2024/02/12 16:45:18;;;;;;;5.68;4.93;;;7.90;99.90;;;8.40;94.42;97131.78;10407907;28;20257;-67
2024/02/12 16:50:22;;;;;;;10.05;8.32;;;7.90;99.90;;;8.38;94.51;97128.22;10415271;28;20588;-64
2024/02/12 16:55:28;;;;;;;7.13;5.80;;;7.80;99.90;;;8.37;95.42;97146.00;10412507;28;20230;-64
2024/02/12 17:00:33;;;;;;;6.38;5.57;;;7.80;99.90;;;8.35;95.19;97153.53;10406061;28;20609;-66
2024/02/12 17:05:36;;;;;;;4.78;4.47;;;7.70;99.90;;;8.27;96.23;97164.97;10404105;28;20225;-65
2024/02/12 17:10:41;;;;;;;5.65;5.22;;;7.70;99.90;;;8.22;96.07;97176.59;10400880;28;20222;-67
2024/02/12 17:15:44;;;;;;;8.02;7.22;;;7.60;99.90;;;8.16;96.50;97186.44;10407664;28;20237;-67
2024/02/12 17:20:49;;;;;;;11.07;9.13;;;7.50;99.90;;;8.08;96.48;97199.59;10409068;28;20275;-67
2024/02/12 17:25:56;;;;;;;13.23;9.70;;;7.50;99.90;;;8.06;96.99;97213.03;10408788;28;20241;-66
2024/02/12 17:30:59;;;;;;;8.55;7.65;;;7.40;99.90;;;7.99;97.39;97211.81;10411419;28;20664;-66
2024/02/12 17:36:04;;;;;;;7.57;5.70;;;7.40;99.90;;;7.94;97.74;97228.47;10399246;28;20225;-71
2024/02/12 17:41:10;;;;;;;6.50;5.90;;;7.30;99.90;;;7.89;98.37;97232.44;10398211;28;20236;-67
2024/02/12 17:46:16;;;;;;;5.00;4.50;;;7.20;99.90;;;7.84;98.95;97238.91;10398494;28;20248;-67
2024/02/12 17:51:20;;;;;;;5.25;4.75;;;7.20;99.90;;;7.65;98.85;97242.97;10404604;28;20332;-65
2024/02/12 17:56:25;;;;;;;4.37;3.97;;;7.00;99.90;;;7.63;99.28;97261.44;10394309;28;20238;-67
2024/02/12 18:01:30;;;;;;;7.30;6.60;;;7.00;99.90;;;7.57;99.97;97271.28;10400663;28;20721;-65
2024/02/12 18:06:33;;;;;;;6.23;5.70;;;6.90;99.90;;;7.48;100.00;97276.69;10400759;28;22024;-67
2024/02/12 18:11:38;;;;;;;6.30;5.60;;;6.90;99.90;;;7.51;100.00;97276.00;10411229;28;20225;-66
2024/02/12 18:16:42;;;;;;;8.37;7.30;;;6.90;99.90;;;7.43;100.00;97285.69;10395170;28;20225;-67
2024/02/12 18:21:46;;;;;;;8.00;7.30;;;6.80;99.90;;;7.40;100.00;97295.69;10391135;28;20229;-63
2024/02/12 18:26:51;;;;;;;16.13;14.60;;;6.70;99.90;;;7.28;100.00;97311.09;10388348;28;20628;-65
2024/02/12 18:31:56;;;;;;;12.60;11.60;;;6.60;99.90;;;7.25;100.00;97317.66;10397036;28;20234;-67
2024/02/12 18:36:59;;;;;;;11.53;10.53;;;6.60;99.90;;;7.17;100.00;97318.06;10398276;28;20257;-67
2024/02/12 18:42:04;;;;;;;10.57;9.57;;;6.50;99.90;;;7.08;100.00;97331.88;10394055;28;20221;-66
2024/02/12 18:47:07;;;;;;;14.10;12.80;;;6.40;99.90;;;7.14;100.00;97338.19;10397367;28;20778;-66
2024/02/12 18:52:10;;;;;;;15.47;13.90;;;6.40;99.90;;;7.13;100.00;97346.63;10395954;28;20229;-66
2024/02/12 18:57:16;;;;;;;13.23;12.13;;;6.50;99.90;;;7.07;100.00;97358.03;10393958;28;22025;-66
2024/02/12 19:02:19;;;;;;;13.30;11.83;;;6.40;99.90;;;6.99;100.00;97370.28;10388407;28;20735;-68
2024/02/12 19:07:24;;;;;;;14.80;13.30;;;6.30;99.90;;;6.85;100.00;97373.63;10383851;28;20660;-66
2024/02/12 19:12:29;;;;;;;16.47;13.87;;;6.20;99.90;;;6.92;100.00;97385.91;10383690;28;20236;-64
2024/02/12 19:17:33;;;;;;;13.60;12.20;;;6.20;99.90;;;6.92;100.00;97391.00;10389067;28;20256;-67
2024/02/12 19:22:36;;;;;;;11.43;10.33;;;6.20;99.90;;;6.95;100.00;97401.34;10388285;28;20218;-66
2024/02/12 19:27:42;;;;;;;11.17;9.70;;;6.30;99.90;;;7.00;100.00;97405.94;10389812;28;20230;-67
2024/02/12 19:32:49;;;;;;;7.53;6.57;;;6.30;99.90;;;7.01;100.00;97404.31;10396904;28;20233;-65
2024/02/12 19:37:52;;;;;;;13.57;12.23;;;6.30;99.90;;;6.91;100.00;97414.66;10393853;28;20239;-68
2024/02/12 19:42:57;;;;;;;8.17;7.47;;;6.20;99.90;;;6.74;100.00;97416.97;10385506;28;20237;-65
2024/02/12 19:48:00;;;;;;;10.60;9.50;;;6.00;99.90;;;6.69;100.00;97432.69;10394384;28;20230;-68
2024/02/12 19:53:03;;;;;;;9.43;7.93;;;6.00;99.90;;;6.61;100.00;97442.38;10389700;28;20230;-67
2024/02/12 19:58:08;;;;;;;15.67;11.27;;;5.90;99.90;;;6.44;100.00;97440.34;10392901;28;20233;-67
2024/02/12 20:03:12;;;;;;;10.90;9.77;;;5.70;99.90;;;6.30;100.00;97447.97;10394323;28;20908;-68
2024/02/12 20:08:16;;;;;;;25.53;18.43;;;5.50;99.90;;;6.03;100.00;97463.84;10382160;28;20225;-68
2024/02/12 20:13:21;;;;;;;12.80;11.30;;;5.30;99.90;;;6.02;100.00;97464.66;10393257;28;20229;-67
2024/02/12 20:18:26;;;;;;;6.37;5.60;;;5.30;99.90;;;5.93;100.00;97474.13;10400766;28;20705;-67
2024/02/12 20:23:29;;;;;;;5.63;5.13;;;5.20;99.90;;;5.87;100.00;97480.53;10396573;28;20690;-67
2024/02/12 20:28:34;;;;;;;8.23;7.43;;;5.20;99.90;;;5.80;100.00;97487.63;10396031;28;20231;-67
2024/02/12 20:33:37;;;;;;;14.80;13.40;;;5.10;99.90;;;5.67;100.00;97496.03;10402131;28;20256;-67
2024/02/12 20:38:40;;;;;;;15.67;14.07;;;5.00;99.90;;;5.64;100.00;97511.03;10409703;28;20229;-68
2024/02/12 20:43:45;;;;;;;14.63;13.03;;;5.00;99.90;;;5.68;100.00;97514.66;10403193;28;20658;-68
2024/02/12 20:48:48;;;;;;;14.27;11.47;;;5.00;99.90;;;5.72;100.00;97521.69;10400608;28;20217;-68
2024/02/12 20:53:52;;;;;;;9.17;8.10;;;5.00;99.90;;;5.70;100.00;97531.75;10400826;28;20593;-66
2024/02/12 20:58:56;;;;;;;9.63;8.50;;;5.00;99.90;;;5.70;100.00;97541.00;10399843;28;20225;-68
2024/02/12 21:03:59;;;;;;;18.13;13.90;;;5.00;99.90;;;5.62;100.00;97545.53;10405280;28;20627;-68
2024/02/12 21:09:04;;;;;;;13.70;12.27;;;4.90;99.90;;;5.66;100.00;97562.72;10405094;28;20685;-67
2024/02/12 21:14:08;;;;;;;15.27;12.03;;;5.00;99.90;;;5.63;100.00;97567.56;10398759;28;20217;-68
2024/02/12 21:19:12;;;;;;;11.97;10.50;;;5.00;99.90;;;5.68;100.00;97573.84;10399836;28;20218;-68
2024/02/12 21:24:15;;;;;;;9.00;7.97;;;5.00;99.90;;;5.68;100.00;97578.91;10398486;28;21639;-67
2024/02/12 21:29:20;;;;;;;10.17;9.07;;;5.00;99.90;;;5.70;100.00;97591.72;10393026;28;20222;-68
2024/02/12 21:34:23;;;;;;;11.00;9.53;;;5.00;99.90;;;5.75;100.00;97595.44;10393588;28;20780;-66
2024/02/12 21:39:33;;;;;;;14.07;10.77;;;5.10;99.90;;;5.78;100.00;97604.16;10401309;28;20737;-65
2024/02/12 21:44:38;;;;;;;19.83;11.50;;;5.10;99.90;;;5.77;100.00;97604.91;10394510;28;20231;-67